Time;durP1;ratioP1;P1;durP2;ratioP2;P2;SDS_P1;SDS_P2;PMS_P1;PMS_P2;Temp;Humidity;BMP_temperature;BMP_pressure;BME280_temperature;BME280_humidity;BME280_pressure;Samples;Min_cycle;Max_cycle;Signal;HPM_P1;HPM_P2
2023/12/19 00:00:55;;;;;;;9.60;5.27;;;;;;;;;;6205951;23;20214;-84
2023/12/19 00:03:26;;;;;;;7.77;5.40;;;;;;;;;;6205919;23;20171;-83
2023/12/19 00:05:58;;;;;;;6.00;4.53;;;;;;;;;;6205427;23;20187;-84
2023/12/19 00:08:26;;;;;;;8.33;5.93;;;;;;;;;;6206624;23;20214;-84
2023/12/19 00:10:57;;;;;;;6.87;5.07;;;;;;;;;;6206697;23;20218;-83
2023/12/19 00:13:28;;;;;;;10.37;5.73;;;;;;;;;;6207536;23;20645;-84
2023/12/19 00:15:58;;;;;;;18.40;7.53;;;;;;;;;;6207064;23;20167;-85
2023/12/19 00:18:27;;;;;;;14.73;7.40;;;;;;;;;;6207614;23;20696;-84
2023/12/19 00:20:56;;;;;;;19.07;9.40;;;;;;;;;;6207325;23;20716;-85
2023/12/19 00:23:30;;;;;;;30.37;13.80;;;;;;;;;;6209036;23;20270;-83
2023/12/19 00:26:02;;;;;;;20.30;10.23;;;;;;;;;;6208373;23;20181;-84
2023/12/19 00:28:32;;;;;;;15.20;7.47;;;;;;;;;;6208599;23;20195;-84
2023/12/19 00:31:04;;;;;;;8.53;5.40;;;;;;;;;;6207715;23;20520;-82
2023/12/19 00:33:36;;;;;;;9.03;5.07;;;;;;;;;;6208692;23;20544;-84
2023/12/19 00:36:09;;;;;;;12.43;6.17;;;;;;;;;;6207966;23;20170;-84
2023/12/19 00:38:41;;;;;;;11.53;7.13;;;;;;;;;;6208220;23;20201;-85
2023/12/19 00:41:12;;;;;;;13.33;6.30;;;;;;;;;;6208483;23;20224;-85
2023/12/19 00:43:42;;;;;;;15.47;8.07;;;;;;;;;;6207247;23;20167;-84
2023/12/19 00:46:13;;;;;;;25.97;11.20;;;;;;;;;;6207655;23;20626;-84
2023/12/19 00:48:42;;;;;;;15.90;7.80;;;;;;;;;;6209645;23;20612;-85
2023/12/19 00:51:11;;;;;;;5.87;4.23;;;;;;;;;;6207580;23;20321;-84
2023/12/19 00:53:43;;;;;;;10.80;5.50;;;;;;;;;;6210103;23;20164;-84
2023/12/19 00:56:15;;;;;;;10.03;6.70;;;;;;;;;;6211944;23;20181;-83
2023/12/19 00:58:44;;;;;;;15.87;7.80;;;;;;;;;;6227872;23;20202;-83
2023/12/19 01:01:16;;;;;;;8.77;6.23;;;;;;;;;;6229421;23;20261;-83
2023/12/19 01:03:49;;;;;;;17.57;7.60;;;;;;;;;;6230641;23;20220;-83
2023/12/19 01:06:18;;;;;;;15.30;7.70;;;;;;;;;;6224659;23;20167;-84
2023/12/19 01:08:51;;;;;;;12.23;6.37;;;;;;;;;;6234900;23;20203;-83
2023/12/19 01:11:23;;;;;;;13.03;5.37;;;;;;;;;;6232532;23;20223;-84
2023/12/19 01:13:54;;;;;;;9.03;4.80;;;;;;;;;;6216190;23;20164;-83
2023/12/19 01:16:24;;;;;;;7.20;5.67;;;;;;;;;;6212767;23;20167;-82
2023/12/19 01:18:53;;;;;;;8.97;4.63;;;;;;;;;;6211179;23;20179;-85
2023/12/19 01:21:23;;;;;;;8.50;4.83;;;;;;;;;;6209946;23;20191;-84
2023/12/19 01:23:52;;;;;;;4.53;4.03;;;;;;;;;;6211998;23;20171;-83
2023/12/19 01:26:23;;;;;;;7.20;4.67;;;;;;;;;;6207355;23;20195;-84
2023/12/19 01:28:53;;;;;;;11.53;5.67;;;;;;;;;;6208242;23;20322;-85
2023/12/19 01:31:25;;;;;;;5.53;4.30;;;;;;;;;;6208777;23;20201;-83
2023/12/19 01:33:58;;;;;;;7.60;5.27;;;;;;;;;;6209374;23;20615;-84
2023/12/19 01:36:26;;;;;;;10.77;5.03;;;;;;;;;;6208287;23;20591;-85
2023/12/19 01:38:56;;;;;;;8.63;6.70;;;;;;;;;;6209666;23;20242;-83
2023/12/19 01:41:30;;;;;;;8.17;5.60;;;;;;;;;;6207820;23;20226;-85
2023/12/19 01:44:01;;;;;;;9.37;6.07;;;;;;;;;;6208042;23;20250;-85
2023/12/19 01:46:38;;;;;;;9.27;5.40;;;;;;;;;;6207819;23;20168;-83
2023/12/19 01:49:08;;;;;;;9.03;4.20;;;;;;;;;;6208914;23;20194;-83
2023/12/19 01:51:38;;;;;;;6.77;4.20;;;;;;;;;;6208949;23;20483;-85
2023/12/19 01:54:08;;;;;;;7.47;5.40;;;;;;;;;;6210257;23;20540;-84
2023/12/19 01:56:45;;;;;;;10.30;7.00;;;;;;;;;;6208375;23;20599;-85
2023/12/19 01:59:15;;;;;;;13.97;5.67;;;;;;;;;;6209729;23;20175;-84
2023/12/19 02:01:45;;;;;;;7.07;5.13;;;;;;;;;;6208897;23;20606;-84
2023/12/19 02:04:12;;;;;;;9.60;5.17;;;;;;;;;;6208876;23;20195;-84
2023/12/19 02:06:42;;;;;;;7.83;6.60;;;;;;;;;;6208088;23;20164;-84
2023/12/19 02:09:12;;;;;;;6.27;5.67;;;;;;;;;;6208463;23;20704;-83
2023/12/19 02:11:41;;;;;;;7.67;5.07;;;;;;;;;;6208573;23;20163;-82
2023/12/19 02:14:11;;;;;;;5.63;4.93;;;;;;;;;;6207747;23;20160;-84
2023/12/19 02:16:41;;;;;;;11.87;5.30;;;;;;;;;;6213927;23;20176;-83
2023/12/19 02:19:12;;;;;;;10.03;6.07;;;;;;;;;;6220036;23;20183;-83
2023/12/19 02:21:39;;;;;;;7.87;5.00;;;;;;;;;;6206004;23;20211;-83
2023/12/19 02:24:11;;;;;;;10.93;6.23;;;;;;;;;;6208161;23;20225;-84
2023/12/19 02:26:43;;;;;;;11.07;6.20;;;;;;;;;;6206623;23;20880;-83
2023/12/19 02:29:13;;;;;;;11.93;5.47;;;;;;;;;;6207956;23;20441;-84
2023/12/19 02:31:44;;;;;;;7.80;4.63;;;;;;;;;;6207545;23;20175;-84
2023/12/19 02:34:11;;;;;;;5.27;4.70;;;;;;;;;;6209059;23;20645;-84
2023/12/19 02:36:42;;;;;;;8.23;5.53;;;;;;;;;;6207031;23;20230;-84
2023/12/19 02:39:13;;;;;;;7.33;4.37;;;;;;;;;;6208079;23;20234;-84
2023/12/19 02:41:42;;;;;;;10.23;5.50;;;;;;;;;;6207964;23;20164;-86
2023/12/19 02:44:14;;;;;;;4.47;4.03;;;;;;;;;;6210084;23;20168;-84
2023/12/19 02:46:42;;;;;;;10.20;5.30;;;;;;;;;;6209799;23;20188;-83
2023/12/19 02:49:11;;;;;;;4.23;3.80;;;;;;;;;;6209188;23;20206;-83
2023/12/19 02:51:39;;;;;;;5.50;4.23;;;;;;;;;;6208540;23;20175;-83
2023/12/19 02:54:10;;;;;;;7.50;4.87;;;;;;;;;;6209273;23;20202;-86
2023/12/19 02:56:40;;;;;;;5.73;3.97;;;;;;;;;;6207779;23;20277;-85
2023/12/19 02:59:10;;;;;;;6.17;5.57;;;;;;;;;;6209306;23;20625;-84
2023/12/19 03:01:40;;;;;;;4.10;3.57;;;;;;;;;;6208008;23;20207;-83
2023/12/19 03:04:08;;;;;;;8.67;4.93;;;;;;;;;;6207994;23;20187;-82
2023/12/19 03:06:36;;;;;;;6.37;5.33;;;;;;;;;;6206991;23;20199;-84
2023/12/19 03:09:06;;;;;;;3.53;3.23;;;;;;;;;;6208417;23;20245;-84
2023/12/19 03:11:33;;;;;;;7.63;4.77;;;;;;;;;;6206912;23;20164;-84
2023/12/19 03:14:03;;;;;;;3.77;3.27;;;;;;;;;;6208663;23;20190;-83
2023/12/19 03:16:31;;;;;;;9.57;4.73;;;;;;;;;;6207067;23;20401;-83
2023/12/19 03:19:02;;;;;;;8.13;4.37;;;;;;;;;;6207475;23;20191;-84
2023/12/19 03:21:33;;;;;;;6.27;3.73;;;;;;;;;;6206149;23;20407;-85
2023/12/19 03:24:04;;;;;;;11.30;5.40;;;;;;;;;;6208555;23;20168;-85
2023/12/19 03:26:32;;;;;;;9.37;5.37;;;;;;;;;;6205437;23;20265;-83
2023/12/19 03:29:02;;;;;;;10.43;4.57;;;;;;;;;;6207890;23;20664;-83
2023/12/19 03:31:32;;;;;;;5.77;5.27;;;;;;;;;;6206330;23;20221;-83
2023/12/19 03:34:02;;;;;;;9.17;5.57;;;;;;;;;;6207715;23;20186;-83
2023/12/19 03:36:31;;;;;;;9.50;4.93;;;;;;;;;;6207198;23;20194;-83
2023/12/19 03:38:59;;;;;;;8.73;3.67;;;;;;;;;;6207544;23;20230;-84
2023/12/19 03:41:29;;;;;;;5.70;4.40;;;;;;;;;;6208884;23;20273;-83
2023/12/19 03:43:57;;;;;;;5.10;3.80;;;;;;;;;;6216093;23;20237;-85
2023/12/19 03:46:25;;;;;;;7.30;4.67;;;;;;;;;;6229656;22;20194;-84
2023/12/19 03:48:56;;;;;;;5.23;3.40;;;;;;;;;;6225270;22;20163;-84
2023/12/19 03:51:27;;;;;;;4.63;3.67;;;;;;;;;;6208901;23;20214;-84
2023/12/19 03:54:00;;;;;;;4.40;3.27;;;;;;;;;;6209259;23;20682;-83
2023/12/19 03:56:32;;;;;;;10.47;4.93;;;;;;;;;;6208310;23;20728;-84
2023/12/19 03:59:02;;;;;;;4.27;3.20;;;;;;;;;;6210167;23;20174;-84
2023/12/19 04:01:34;;;;;;;6.97;4.77;;;;;;;;;;6208852;23;20225;-84
2023/12/19 04:04:05;;;;;;;3.83;3.53;;;;;;;;;;6209108;23;20170;-85
2023/12/19 04:06:36;;;;;;;5.77;3.70;;;;;;;;;;6207519;23;20167;-84
2023/12/19 04:09:07;;;;;;;8.57;6.00;;;;;;;;;;6211559;23;20786;-86
2023/12/19 04:11:36;;;;;;;4.90;4.47;;;;;;;;;;6215796;23;20163;-85
2023/12/19 04:14:07;;;;;;;6.73;4.60;;;;;;;;;;6210867;23;20168;-84
2023/12/19 04:16:38;;;;;;;7.97;5.23;;;;;;;;;;6208880;23;20163;-84
2023/12/19 04:19:10;;;;;;;11.20;5.27;;;;;;;;;;6209468;23;20617;-84
2023/12/19 04:21:43;;;;;;;16.23;6.17;;;;;;;;;;6206735;23;20540;-84
2023/12/19 04:24:14;;;;;;;11.30;4.90;;;;;;;;;;6209521;23;20377;-84
2023/12/19 04:26:46;;;;;;;16.60;7.40;;;;;;;;;;6207898;23;20253;-84
2023/12/19 04:29:17;;;;;;;10.40;6.13;;;;;;;;;;6207412;23;20176;-83
2023/12/19 04:31:47;;;;;;;16.67;7.37;;;;;;;;;;6209169;23;20198;-83
2023/12/19 04:34:20;;;;;;;12.20;6.13;;;;;;;;;;6208081;23;20706;-84
2023/12/19 04:36:49;;;;;;;4.63;4.17;;;;;;;;;;6207921;23;20637;-84
2023/12/19 04:39:16;;;;;;;8.23;4.50;;;;;;;;;;6209269;23;20484;-84
2023/12/19 04:41:45;;;;;;;7.13;4.93;;;;;;;;;;6208198;23;20203;-83
2023/12/19 04:44:16;;;;;;;11.20;5.87;;;;;;;;;;6208172;23;20160;-83
2023/12/19 04:46:44;;;;;;;5.17;3.77;;;;;;;;;;6208498;23;20229;-83
2023/12/19 04:49:14;;;;;;;7.27;5.33;;;;;;;;;;6208154;23;20748;-84
2023/12/19 04:51:46;;;;;;;9.13;5.07;;;;;;;;;;6208675;23;20202;-84
2023/12/19 04:54:15;;;;;;;10.67;5.70;;;;;;;;;;6208812;23;20198;-84
2023/12/19 04:56:43;;;;;;;9.63;6.47;;;;;;;;;;6207296;23;20253;-85
2023/12/19 04:59:14;;;;;;;19.03;8.77;;;;;;;;;;6207833;23;20190;-84
2023/12/19 05:01:50;;;;;;;10.10;5.93;;;;;;;;;;6208055;23;20269;-84
2023/12/19 05:04:22;;;;;;;8.97;6.30;;;;;;;;;;6208058;23;20235;-83
2023/12/19 05:06:52;;;;;;;18.63;8.37;;;;;;;;;;6208516;23;20191;-84
2023/12/19 05:09:25;;;;;;;12.27;5.87;;;;;;;;;;6210945;23;20164;-82
2023/12/19 05:11:55;;;;;;;5.60;4.40;;;;;;;;;;6209785;23;20198;-84
2023/12/19 05:14:27;;;;;;;11.87;5.27;;;;;;;;;;6209672;23;20195;-83
2023/12/19 05:17:03;;;;;;;14.03;6.00;;;;;;;;;;6206850;23;20282;-84
2023/12/19 05:19:36;;;;;;;13.87;7.30;;;;;;;;;;6208828;23;20217;-85
2023/12/19 05:22:08;;;;;;;16.50;6.10;;;;;;;;;;6205115;23;20621;-83
2023/12/19 05:24:39;;;;;;;8.83;5.63;;;;;;;;;;6207368;23;20174;-83
2023/12/19 05:27:09;;;;;;;6.07;5.00;;;;;;;;;;6207450;23;20188;-83
2023/12/19 05:29:38;;;;;;;9.40;6.50;;;;;;;;;;6208004;23;20715;-83
2023/12/19 05:32:11;;;;;;;13.87;7.33;;;;;;;;;;6206785;23;20191;-83
2023/12/19 05:34:39;;;;;;;10.03;5.83;;;;;;;;;;6207476;23;20772;-84
2023/12/19 05:37:14;;;;;;;15.93;5.63;;;;;;;;;;6206847;23;20175;-83
2023/12/19 05:39:44;;;;;;;12.70;6.03;;;;;;;;;;6210006;23;20167;-82
2023/12/19 05:42:15;;;;;;;11.40;7.53;;;;;;;;;;6208379;23;20171;-84
2023/12/19 05:44:47;;;;;;;10.17;6.90;;;;;;;;;;6207155;23;20211;-84
2023/12/19 05:47:22;;;;;;;9.47;5.57;;;;;;;;;;6207629;23;20170;-84
2023/12/19 05:49:52;;;;;;;10.47;5.47;;;;;;;;;;6210051;23;20252;-83
2023/12/19 05:52:23;;;;;;;11.60;6.43;;;;;;;;;;6208606;23;20497;-84
2023/12/19 05:54:53;;;;;;;11.30;7.33;;;;;;;;;;6208447;23;20163;-84
2023/12/19 05:57:22;;;;;;;9.87;6.97;;;;;;;;;;6206419;23;20174;-82
2023/12/19 05:59:53;;;;;;;6.53;5.93;;;;;;;;;;6208442;23;20225;-83
2023/12/19 06:02:27;;;;;;;14.77;7.33;;;;;;;;;;6208923;23;20206;-83
2023/12/19 06:04:57;;;;;;;14.83;7.07;;;;;;;;;;6213740;23;20652;-83
2023/12/19 06:07:27;;;;;;;14.70;7.23;;;;;;;;;;6209106;23;20184;-84
2023/12/19 06:09:56;;;;;;;12.73;6.50;;;;;;;;;;6208315;23;20283;-83
2023/12/19 06:12:25;;;;;;;11.37;6.37;;;;;;;;;;6208576;23;20190;-85
2023/12/19 06:14:54;;;;;;;5.80;5.30;;;;;;;;;;6210017;23;20167;-83
2023/12/19 06:17:26;;;;;;;11.67;7.20;;;;;;;;;;6208487;23;20617;-83
2023/12/19 06:19:55;;;;;;;13.53;7.50;;;;;;;;;;6208694;23;20274;-83
2023/12/19 06:22:25;;;;;;;13.27;7.53;;;;;;;;;;6211799;23;20174;-83
2023/12/19 06:24:58;;;;;;;13.20;7.53;;;;;;;;;;6214191;23;20259;-83
2023/12/19 06:27:27;;;;;;;13.80;7.90;;;;;;;;;;6234068;23;20194;-81
2023/12/19 06:29:57;;;;;;;17.23;9.43;;;;;;;;;;6217259;23;20168;-83
2023/12/19 06:32:28;;;;;;;29.63;12.07;;;;;;;;;;6206620;23;20536;-82
2023/12/19 06:34:58;;;;;;;23.37;9.83;;;;;;;;;;6208436;23;20172;-84
2023/12/19 06:37:28;;;;;;;15.77;8.47;;;;;;;;;;6207203;23;20262;-84
2023/12/19 06:39:58;;;;;;;13.50;8.47;;;;;;;;;;6208782;23;20245;-83
2023/12/19 06:42:28;;;;;;;18.43;7.63;;;;;;;;;;6208905;23;20334;-84
2023/12/19 06:45:00;;;;;;;16.03;7.13;;;;;;;;;;6211510;23;20696;-83
2023/12/19 06:47:28;;;;;;;12.03;6.93;;;;;;;;;;6212174;23;20169;-84
2023/12/19 06:49:56;;;;;;;19.10;8.23;;;;;;;;;;6208924;23;20171;-84
2023/12/19 06:52:25;;;;;;;13.00;7.67;;;;;;;;;;6208115;23;20578;-83
2023/12/19 06:54:56;;;;;;;15.20;9.23;;;;;;;;;;6207655;23;20546;-83
2023/12/19 06:57:29;;;;;;;12.70;8.37;;;;;;;;;;6213441;23;20171;-82
2023/12/19 06:59:57;;;;;;;25.10;10.20;;;;;;;;;;6213046;23;20182;-83
2023/12/19 07:02:28;;;;;;;19.70;11.37;;;;;;;;;;6206971;23;20723;-82
2023/12/19 07:04:56;;;;;;;23.57;13.77;;;;;;;;;;6208972;23;20231;-84
2023/12/19 07:07:27;;;;;;;27.17;13.93;;;;;;;;;;6208463;23;20163;-83
2023/12/19 07:09:56;;;;;;;30.13;13.43;;;;;;;;;;6207273;23;20206;-84
2023/12/19 07:12:26;;;;;;;32.10;14.63;;;;;;;;;;6206322;23;20167;-84
2023/12/19 07:14:57;;;;;;;38.33;17.50;;;;;;;;;;6208039;23;20189;-85
2023/12/19 07:17:27;;;;;;;47.43;21.63;;;;;;;;;;6206013;23;20167;-84
2023/12/19 07:19:56;;;;;;;66.17;26.77;;;;;;;;;;6209492;23;20292;-83
2023/12/19 07:22:27;;;;;;;66.47;29.27;;;;;;;;;;6209047;23;20167;-85
2023/12/19 07:24:56;;;;;;;61.67;27.40;;;;;;;;;;6208969;23;20238;-84
2023/12/19 07:27:25;;;;;;;46.13;25.93;;;;;;;;;;6209332;23;20225;-86
2023/12/19 07:29:55;;;;;;;44.20;20.97;;;;;;;;;;6207867;23;20595;-85
2023/12/19 07:32:25;;;;;;;50.43;22.43;;;;;;;;;;6207725;23;20262;-83
2023/12/19 07:34:57;;;;;;;45.80;21.10;;;;;;;;;;6217351;23;20233;-84
2023/12/19 07:37:26;;;;;;;33.40;18.17;;;;;;;;;;6217756;23;20164;-83
2023/12/19 07:39:56;;;;;;;39.70;16.97;;;;;;;;;;6218493;23;20163;-85
2023/12/19 07:42:28;;;;;;;26.47;15.57;;;;;;;;;;6218899;23;20182;-85
2023/12/19 07:44:58;;;;;;;30.33;16.50;;;;;;;;;;6223076;23;20199;-82
2023/12/19 07:47:30;;;;;;;31.60;17.27;;;;;;;;;;6234170;22;20189;-83
2023/12/19 07:50:00;;;;;;;35.93;19.10;;;;;;;;;;6235286;22;20186;-83
2023/12/19 07:52:29;;;;;;;35.83;20.10;;;;;;;;;;6232240;22;20238;-84
2023/12/19 07:55:00;;;;;;;43.20;20.97;;;;;;;;;;6229138;22;20205;-83
2023/12/19 07:57:29;;;;;;;32.80;19.27;;;;;;;;;;6228596;22;20236;-84
2023/12/19 07:59:59;;;;;;;36.33;18.47;;;;;;;;;;6215233;23;20197;-82
2023/12/19 08:02:32;;;;;;;31.50;17.90;;;;;;;;;;6217813;23;20267;-84
2023/12/19 08:05:01;;;;;;;38.97;19.50;;;;;;;;;;6217679;23;20289;-84
2023/12/19 08:07:30;;;;;;;33.80;18.67;;;;;;;;;;6208774;23;20219;-84
2023/12/19 08:10:04;;;;;;;35.47;18.83;;;;;;;;;;6204962;23;20360;-83
2023/12/19 08:12:32;;;;;;;37.07;20.23;;;;;;;;;;6207521;23;20210;-84
2023/12/19 08:15:03;;;;;;;45.70;20.20;;;;;;;;;;6202718;23;20282;-83
2023/12/19 08:17:36;;;;;;;38.43;19.93;;;;;;;;;;6206966;23;20198;-84
2023/12/19 08:20:05;;;;;;;39.07;20.40;;;;;;;;;;6209422;23;20270;-84
2023/12/19 08:22:36;;;;;;;47.40;21.53;;;;;;;;;;6212829;23;20700;-83
2023/12/19 08:25:08;;;;;;;47.80;24.43;;;;;;;;;;6206688;23;20195;-83
2023/12/19 08:27:42;;;;;;;51.60;22.73;;;;;;;;;;6206679;23;20704;-85
2023/12/19 08:30:18;;;;;;;47.73;23.47;;;;;;;;;;6204082;23;20223;-84
2023/12/19 08:32:52;;;;;;;52.43;22.93;;;;;;;;;;6206894;23;20199;-84
2023/12/19 08:35:22;;;;;;;47.63;24.33;;;;;;;;;;6207521;23;20199;-85
2023/12/19 08:37:53;;;;;;;50.47;23.90;;;;;;;;;;6205265;23;20778;-84
2023/12/19 08:40:25;;;;;;;47.83;23.10;;;;;;;;;;6207837;23;20261;-85
2023/12/19 08:42:58;;;;;;;42.17;21.67;;;;;;;;;;6208204;23;20195;-83
2023/12/19 08:45:31;;;;;;;37.70;21.70;;;;;;;;;;6198659;23;20532;-84
2023/12/19 08:48:01;;;;;;;41.70;20.90;;;;;;;;;;6211780;23;20250;-86
2023/12/19 08:50:31;;;;;;;34.43;20.23;;;;;;;;;;6215833;23;20195;-84
2023/12/19 08:53:19;;;;;;;37.27;20.00;;;;;;;;;;6212866;23;20197;-84
2023/12/19 08:55:49;;;;;;;45.97;22.40;;;;;;;;;;6205663;23;20187;-85
2023/12/19 08:58:17;;;;;;;42.90;20.83;;;;;;;;;;6207768;23;20675;-85
2023/12/19 09:00:46;;;;;;;45.13;20.60;;;;;;;;;;6202170;23;20195;-84
2023/12/19 09:03:18;;;;;;;39.47;20.70;;;;;;;;;;6214535;23;20201;-84
2023/12/19 09:05:48;;;;;;;44.27;22.50;;;;;;;;;;6217798;23;20203;-83
2023/12/19 09:08:17;;;;;;;45.00;22.43;;;;;;;;;;6236296;22;20215;-84
2023/12/19 09:10:45;;;;;;;43.63;23.10;;;;;;;;;;6230461;22;20200;-86
2023/12/19 09:13:17;;;;;;;37.03;21.87;;;;;;;;;;6203029;23;20193;-83
2023/12/19 09:15:46;;;;;;;38.87;21.13;;;;;;;;;;6209590;23;20272;-83
2023/12/19 09:18:19;;;;;;;40.03;21.03;;;;;;;;;;6195091;23;20690;-83
2023/12/19 09:20:50;;;;;;;40.13;20.50;;;;;;;;;;6209233;23;20199;-84
2023/12/19 09:23:20;;;;;;;43.97;21.63;;;;;;;;;;6209311;23;20224;-83
2023/12/19 09:25:51;;;;;;;33.23;20.87;;;;;;;;;;6209629;23;20205;-83
2023/12/19 09:28:23;;;;;;;35.67;21.20;;;;;;;;;;6195542;23;20197;-83
2023/12/19 09:31:11;;;;;;;38.97;21.73;;;;;;;;;;6212581;23;20277;-86
2023/12/19 09:34:12;;;;;;;43.37;22.27;;;;;;;;;;6222861;22;20221;-85
2023/12/19 09:36:44;;;;;;;47.67;23.03;;;;;;;;;;6216633;23;20214;-83
2023/12/19 09:39:15;;;;;;;52.43;27.13;;;;;;;;;;6217122;23;20193;-83
2023/12/19 09:41:46;;;;;;;48.17;25.73;;;;;;;;;;6222145;23;20198;-84
2023/12/19 09:44:15;;;;;;;42.90;24.17;;;;;;;;;;6223323;23;20285;-84
2023/12/19 09:49:41;;;;;;;67.60;28.47;;;;;;;;;;6156887;23;20278;-84
2023/12/19 09:52:12;;;;;;;74.33;30.90;;;;;;;;;;6192887;23;20597;-84
2023/12/19 09:54:57;;;;;;;75.77;31.40;;;;;;;;;;6199733;22;20216;-85
2023/12/19 09:57:45;;;;;;;71.00;32.93;;;;;;;;;;6225850;23;20207;-85
2023/12/19 10:00:13;;;;;;;77.93;33.47;;;;;;;;;;6228407;23;20196;-83
2023/12/19 10:08:24;;;;;;;63.23;31.37;;;;;;;;;;6172114;23;21231;-84
2023/12/19 10:13:46;;;;;;;60.67;29.67;;;;;;;;;;6203570;22;20209;-83
2023/12/19 10:16:19;;;;;;;62.40;31.27;;;;;;;;;;6227002;23;20198;-84
2023/12/19 10:21:56;;;;;;;68.93;26.83;;;;;;;;;;6195508;22;20231;-85
2023/12/19 10:27:02;;;;;;;63.53;28.63;;;;;;;;;;6178716;22;20272;-84
2023/12/19 10:29:36;;;;;;;55.33;25.70;;;;;;;;;;6204318;23;20194;-83
2023/12/19 10:32:12;;;;;;;44.50;23.37;;;;;;;;;;6209745;23;20210;-86
2023/12/19 10:34:43;;;;;;;49.13;23.90;;;;;;;;;;6179618;23;20195;-84
2023/12/19 10:37:12;;;;;;;49.80;24.70;;;;;;;;;;6183793;23;20194;-84
2023/12/19 10:39:44;;;;;;;52.70;25.17;;;;;;;;;;6186835;23;20200;-81
2023/12/19 10:42:19;;;;;;;53.73;26.20;;;;;;;;;;6187903;23;20231;-83
2023/12/19 10:44:48;;;;;;;52.53;26.90;;;;;;;;;;6186305;23;20189;-85
2023/12/19 10:47:18;;;;;;;50.07;25.83;;;;;;;;;;6189380;23;20678;-83
2023/12/19 10:49:48;;;;;;;46.90;24.67;;;;;;;;;;6185437;23;20199;-83
2023/12/19 10:52:22;;;;;;;46.17;24.27;;;;;;;;;;6190981;23;20205;-83
2023/12/19 10:54:54;;;;;;;52.43;25.90;;;;;;;;;;6182304;23;20576;-85
2023/12/19 10:57:46;;;;;;;67.70;29.53;;;;;;;;;;6192902;23;20196;-86
2023/12/19 11:00:22;;;;;;;66.67;30.50;;;;;;;;;;6148658;23;20188;-85
2023/12/19 11:02:55;;;;;;;70.40;34.77;;;;;;;;;;6189081;23;20216;-85
2023/12/19 11:05:42;;;;;;;70.37;36.30;;;;;;;;;;6190284;23;20205;-85
2023/12/19 11:08:39;;;;;;;72.17;37.10;;;;;;;;;;6191714;23;20190;-85
2023/12/19 11:11:12;;;;;;;87.50;38.83;;;;;;;;;;6184031;23;20200;-85
2023/12/19 11:13:42;;;;;;;78.67;39.73;;;;;;;;;;6189860;23;20609;-85
2023/12/19 11:16:32;;;;;;;90.43;41.17;;;;;;;;;;6180022;23;20659;-86
2023/12/19 11:19:03;;;;;;;79.17;40.53;;;;;;;;;;6191374;23;20181;-86
2023/12/19 11:21:41;;;;;;;91.17;39.33;;;;;;;;;;6169943;23;20199;-85
2023/12/19 11:24:18;;;;;;;79.97;38.10;;;;;;;;;;6200342;22;20211;-85
2023/12/19 11:26:54;;;;;;;78.50;37.80;;;;;;;;;;6215211;23;20195;-86
2023/12/19 11:29:42;;;;;;;75.60;35.20;;;;;;;;;;6217029;23;20195;-88
2023/12/19 11:32:28;;;;;;;82.87;39.73;;;;;;;;;;6213814;23;20208;-85
2023/12/19 11:35:14;;;;;;;74.93;36.60;;;;;;;;;;6211126;23;20196;-87
2023/12/19 11:37:44;;;;;;;81.60;38.20;;;;;;;;;;6215968;23;20276;-86
2023/12/19 11:40:19;;;;;;;84.23;36.97;;;;;;;;;;6207487;23;20249;-85
2023/12/19 11:42:52;;;;;;;81.80;35.77;;;;;;;;;;6219908;23;20197;-83
2023/12/19 11:45:34;;;;;;;78.13;35.97;;;;;;;;;;6219085;23;20197;-84
2023/12/19 11:48:03;;;;;;;72.13;33.57;;;;;;;;;;6187903;23;20202;-82
2023/12/19 11:50:54;;;;;;;75.30;35.80;;;;;;;;;;6207554;23;20231;-84
2023/12/19 11:53:28;;;;;;;74.70;34.47;;;;;;;;;;6216178;23;20210;-84
2023/12/19 11:56:08;;;;;;;65.70;33.70;;;;;;;;;;6210001;23;20547;-85
2023/12/19 11:58:40;;;;;;;66.00;31.00;;;;;;;;;;6215335;23;20290;-84
2023/12/19 12:01:11;;;;;;;62.30;31.40;;;;;;;;;;6208446;23;20196;-84
2023/12/19 12:03:38;;;;;;;64.57;32.63;;;;;;;;;;6215574;23;20205;-81
2023/12/19 12:06:08;;;;;;;68.80;30.53;;;;;;;;;;6214040;23;20709;-85
2023/12/19 12:08:39;;;;;;;61.17;29.83;;;;;;;;;;6216618;23;20189;-83
2023/12/19 12:11:10;;;;;;;61.03;29.67;;;;;;;;;;6210223;23;20668;-84
2023/12/19 12:13:38;;;;;;;53.80;29.33;;;;;;;;;;6217701;23;20247;-86
2023/12/19 12:16:07;;;;;;;63.90;30.60;;;;;;;;;;6215978;23;20214;-85
2023/12/19 12:18:43;;;;;;;55.57;29.57;;;;;;;;;;6218141;23;20681;-85
2023/12/19 12:21:14;;;;;;;60.07;29.83;;;;;;;;;;6216553;23;20604;-84
2023/12/19 12:23:45;;;;;;;68.13;29.70;;;;;;;;;;6216469;23;20601;-84
2023/12/19 12:26:20;;;;;;;61.73;31.30;;;;;;;;;;6217307;23;20669;-84
2023/12/19 12:28:52;;;;;;;71.70;35.17;;;;;;;;;;6215198;23;20618;-85
2023/12/19 12:31:21;;;;;;;74.63;33.30;;;;;;;;;;6224868;23;20195;-84
2023/12/19 12:33:51;;;;;;;67.60;32.47;;;;;;;;;;6232866;23;20653;-84
2023/12/19 12:36:34;;;;;;;72.77;34.50;;;;;;;;;;6224492;23;20165;-84
2023/12/19 12:39:07;;;;;;;75.23;36.17;;;;;;;;;;6219738;23;20164;-83
2023/12/19 12:41:37;;;;;;;78.23;35.17;;;;;;;;;;6218747;23;20163;-83
2023/12/19 12:44:16;;;;;;;75.43;35.10;;;;;;;;;;6220149;23;20175;-82
2023/12/19 12:47:02;;;;;;;75.77;34.10;;;;;;;;;;6217837;23;20191;-84
2023/12/19 12:49:33;;;;;;;77.00;36.63;;;;;;;;;;6217435;23;20193;-84
2023/12/19 12:52:05;;;;;;;73.67;35.43;;;;;;;;;;6216918;23;20226;-82
2023/12/19 12:54:38;;;;;;;79.70;37.40;;;;;;;;;;6215300;23;20170;-85
2023/12/19 12:57:15;;;;;;;84.90;37.53;;;;;;;;;;6216238;23;20262;-82
2023/12/19 12:59:45;;;;;;;79.83;37.40;;;;;;;;;;6213980;23;20172;-84
2023/12/19 13:02:29;;;;;;;84.07;38.37;;;;;;;;;;6216709;23;20480;-83
2023/12/19 13:05:01;;;;;;;85.77;36.53;;;;;;;;;;6217735;23;20271;-86
2023/12/19 13:07:31;;;;;;;75.93;34.87;;;;;;;;;;6218341;23;20168;-84
2023/12/19 13:10:05;;;;;;;71.43;33.50;;;;;;;;;;6217439;23;20180;-84
2023/12/19 13:12:36;;;;;;;77.13;35.63;;;;;;;;;;6219535;23;20721;-85
2023/12/19 13:15:05;;;;;;;62.00;33.20;;;;;;;;;;6219167;23;20176;-84
2023/12/19 13:17:35;;;;;;;69.13;33.53;;;;;;;;;;6216652;23;20167;-84
2023/12/19 13:20:10;;;;;;;71.83;35.97;;;;;;;;;;6216706;23;20225;-83
2023/12/19 13:22:38;;;;;;;71.63;32.90;;;;;;;;;;6217934;23;20182;-84
2023/12/19 13:25:12;;;;;;;73.50;32.50;;;;;;;;;;6216668;23;20163;-86
2023/12/19 13:27:47;;;;;;;54.60;30.67;;;;;;;;;;6227335;22;20167;-84
2023/12/19 13:33:08;;;;;;;54.53;25.70;;;;;;;;;;6217188;23;20203;-84
2023/12/19 13:35:37;;;;;;;47.70;23.57;;;;;;;;;;6217740;23;20174;-85
2023/12/19 13:38:08;;;;;;;67.00;25.23;;;;;;;;;;6221062;23;20198;-85
2023/12/19 13:40:39;;;;;;;51.83;25.10;;;;;;;;;;6216808;23;20171;-85
2023/12/19 13:43:10;;;;;;;62.77;25.13;;;;;;;;;;6213759;23;20242;-85
2023/12/19 13:45:41;;;;;;;48.70;24.27;;;;;;;;;;6214897;23;20176;-86
2023/12/19 13:48:10;;;;;;;55.43;25.27;;;;;;;;;;6214654;23;20257;-84
2023/12/19 13:50:38;;;;;;;44.93;21.77;;;;;;;;;;6214310;23;20175;-84
2023/12/19 13:53:09;;;;;;;53.37;23.03;;;;;;;;;;6215892;23;20539;-84
2023/12/19 13:55:40;;;;;;;49.97;25.33;;;;;;;;;;6220184;23;20194;-85
2023/12/19 13:58:09;;;;;;;55.80;25.30;;;;;;;;;;6228844;23;20175;-84
2023/12/19 14:00:40;;;;;;;48.13;23.77;;;;;;;;;;6235907;22;20167;-84
2023/12/19 14:03:11;;;;;;;45.53;23.30;;;;;;;;;;6229038;23;20167;-84
2023/12/19 14:05:42;;;;;;;63.13;23.40;;;;;;;;;;6217153;23;20474;-84
2023/12/19 14:08:11;;;;;;;49.43;25.50;;;;;;;;;;6215809;23;20163;-84
2023/12/19 14:10:42;;;;;;;48.67;23.10;;;;;;;;;;6215195;23;20191;-86
2023/12/19 14:13:11;;;;;;;51.80;21.47;;;;;;;;;;6215829;23;20195;-83
2023/12/19 14:15:40;;;;;;;51.77;21.57;;;;;;;;;;6215900;23;20171;-83
2023/12/19 14:18:10;;;;;;;39.67;20.87;;;;;;;;;;6215657;23;20171;-86
2023/12/19 14:20:39;;;;;;;55.20;21.23;;;;;;;;;;6217626;23;20213;-85
2023/12/19 14:23:10;;;;;;;45.03;20.73;;;;;;;;;;6217262;23;20204;-84
2023/12/19 14:25:39;;;;;;;60.03;21.67;;;;;;;;;;6217198;23;20215;-85
2023/12/19 14:28:09;;;;;;;39.97;20.37;;;;;;;;;;6216945;23;20236;-85
2023/12/19 14:30:39;;;;;;;53.60;25.17;;;;;;;;;;6212789;23;20168;-84
2023/12/19 14:33:08;;;;;;;52.53;24.33;;;;;;;;;;6215762;23;20203;-85
2023/12/19 14:35:38;;;;;;;50.83;20.97;;;;;;;;;;6215928;23;20218;-85
2023/12/19 14:38:09;;;;;;;51.57;21.87;;;;;;;;;;6217134;23;20167;-84
2023/12/19 14:40:37;;;;;;;49.47;24.90;;;;;;;;;;6216920;23;20239;-84
2023/12/19 14:43:19;;;;;;;57.17;25.10;;;;;;;;;;6226690;23;20167;-84
2023/12/19 14:45:51;;;;;;;52.17;23.97;;;;;;;;;;6223384;23;20571;-84
2023/12/19 14:51:32;;;;;;;48.70;22.23;;;;;;;;;;6235831;22;20197;-85
2023/12/19 14:54:01;;;;;;;45.03;21.43;;;;;;;;;;6226365;23;20202;-85
2023/12/19 14:56:29;;;;;;;48.63;23.37;;;;;;;;;;6197804;22;20204;-83
2023/12/19 14:59:01;;;;;;;57.97;22.67;;;;;;;;;;6224368;23;20194;-85
2023/12/19 15:01:31;;;;;;;60.47;26.13;;;;;;;;;;6231511;23;20194;-84
2023/12/19 15:04:07;;;;;;;58.00;24.20;;;;;;;;;;6196775;23;20208;-84
2023/12/19 15:06:44;;;;;;;51.33;23.20;;;;;;;;;;6181992;23;20239;-85
2023/12/19 15:09:12;;;;;;;51.40;24.40;;;;;;;;;;6190215;23;20186;-83
2023/12/19 15:11:40;;;;;;;62.77;28.10;;;;;;;;;;6187653;23;20195;-84
2023/12/19 15:14:09;;;;;;;66.10;28.13;;;;;;;;;;6187765;23;20203;-85